METAR UND TAF INFORMATION
METAR FOR LDSP
ADDS - METARS form results

(1113 UTC 19 December 2018)
Data provider http://aviationweather.gov/metar/data/
 
METAR text: LDSP 191100Z 12004KT 070V150 CAVOK 09/M05 Q1024 NOSIG
Conditions at: LDSP (SPLIT/KASTEL STA, HR) observed 1100 UTC 19 December 2018
Temperature: 9.0°C (48°F)
Dewpoint: -5.0°C (23°F) [RH = 37%]
Pressure (altimeter): 30.24 inches Hg (1024.0 mb)
Winds: from the ESE (120 degrees) at 5 MPH (4 knots; 2.1 m/s)
Visibility: 6 or more miles (10+ km)
Ceiling: ceiling and visibility are OK
Clouds: unknown
Weather: no significant weather observed at this time

METAR text: LDSP 191030Z 08003KT 040V130 CAVOK 09/M03 Q1024 NOSIG
Conditions at: LDSP (SPLIT/KASTEL STA, HR) observed 1030 UTC 19 December 2018
Temperature: 9.0°C (48°F)
Dewpoint: -3.0°C (27°F) [RH = 43%]
Pressure (altimeter): 30.24 inches Hg (1024.0 mb)
Winds: from the E (80 degrees) at 3 MPH (3 knots; 1.5 m/s)
Visibility: 6 or more miles (10+ km)
Ceiling: ceiling and visibility are OK
Clouds: unknown
Weather: no significant weather observed at this time

Forecast for: LDSP (SPLIT/KASTEL STA, HR)
Text: TAF LDSP 190525Z 1906/2006 33006KT CAVOK TX11/1913Z TN02/1906Z
Forecast period: 0600 to 2000 UTC 19 December 2018
Forecast type: FROM: standard forecast or significant change
Winds: from the NNW (330 degrees) at 7 MPH (6 knots; 3.1 m/s)
Visibility: 6 or more miles 10+ km)
Ceiling: unknown
Clouds: missing
Weather: no significant weather forecast for this period
Text: BECMG 1920/1922 07008KT
Forecast period: 2000 UTC 19 December 2018 to 0600 UTC 20 December 2018
Forecast type: BECOMING: Conditions expected to become as follows by 2200 UTC 19 December 2018
Winds: from the ENE (70 degrees) at 9 MPH (8 knots; 4.1 m/s)
Visibility: 6 or more miles 10+ km)
Ceiling: unknown
Clouds: missing
Weather: no significant weather forecast for this period

 FLUGHAFENKARTE

 RUNWAY INFORMATION
Runway 05 Runway length 8366 ft Runway width 148 ft
Runway elevation 70 ft Runway displaced threshold 0 ft Runway heading 53
Runway 23 Runway length 8366 ft Runway width 148 ft
Runway elevation 50 ft Runway displaced threshold 525 ft Runway heading 233

 AIRPORT FREQUENCIES
Type APP Name APP Frequency 120.875 MHZ
Type INFO Name INFO Frequency 128.675 MHZ
Type TWR Name TWR Frequency 124.675 MHZ

 AIRPORT NEAR NAVIGATION AIDS
Type NDB Name Drvenik Frequency 418 KHZ
Type VOR-DME Name Split Frequency 115700 KHZ
Type NDB Name Trogir Frequency 378 KHZ



WIKA Airline 2017 Version 3.3 powered by VAM